sensor_id;sensor_type;location;lat;lon;timestamp;P1;durP1;ratioP1;P2;durP2;ratioP2
22737;SDS011;11536;50.860;4.286;2023-02-01T00:01:28;22.20;;;7.60;;
22737;SDS011;11536;50.860;4.286;2023-02-01T00:03:54;22.00;;;7.97;;
22737;SDS011;11536;50.860;4.286;2023-02-01T00:06:19;24.65;;;7.63;;
22737;SDS011;11536;50.860;4.286;2023-02-01T00:08:45;18.15;;;7.28;;
22737;SDS011;11536;50.860;4.286;2023-02-01T00:11:11;18.02;;;7.60;;
22737;SDS011;11536;50.860;4.286;2023-02-01T00:13:38;20.35;;;7.40;;
22737;SDS011;11536;50.860;4.286;2023-02-01T00:18:39;22.55;;;7.65;;
22737;SDS011;11536;50.860;4.286;2023-02-01T00:21:04;21.42;;;7.75;;
22737;SDS011;11536;50.860;4.286;2023-02-01T00:23:34;31.55;;;7.70;;
22737;SDS011;11536;50.860;4.286;2023-02-01T00:26:04;23.60;;;7.63;;
22737;SDS011;11536;50.860;4.286;2023-02-01T00:28:31;21.50;;;7.72;;
22737;SDS011;11536;50.860;4.286;2023-02-01T00:30:57;23.25;;;7.55;;
22737;SDS011;11536;50.860;4.286;2023-02-01T00:33:28;27.05;;;7.15;;
22737;SDS011;11536;50.860;4.286;2023-02-01T00:35:57;23.60;;;6.75;;
22737;SDS011;11536;50.860;4.286;2023-02-01T00:38:27;17.70;;;6.53;;
22737;SDS011;11536;50.860;4.286;2023-02-01T00:40:54;17.83;;;7.05;;
22737;SDS011;11536;50.860;4.286;2023-02-01T00:43:26;23.58;;;6.20;;
22737;SDS011;11536;50.860;4.286;2023-02-01T00:45:52;19.40;;;5.78;;
22737;SDS011;11536;50.860;4.286;2023-02-01T00:48:17;18.50;;;5.55;;
22737;SDS011;11536;50.860;4.286;2023-02-01T00:50:43;19.63;;;5.45;;
22737;SDS011;11536;50.860;4.286;2023-02-01T00:53:09;17.70;;;4.63;;
22737;SDS011;11536;50.860;4.286;2023-02-01T00:55:35;17.83;;;5.18;;
22737;SDS011;11536;50.860;4.286;2023-02-01T00:58:01;20.20;;;5.43;;
22737;SDS011;11536;50.860;4.286;2023-02-01T01:00:28;20.25;;;5.50;;
22737;SDS011;11536;50.860;4.286;2023-02-01T01:02:53;20.80;;;5.53;;
22737;SDS011;11536;50.860;4.286;2023-02-01T01:05:19;17.92;;;5.00;;
22737;SDS011;11536;50.860;4.286;2023-02-01T01:07:45;20.23;;;5.35;;
22737;SDS011;11536;50.860;4.286;2023-02-01T01:10:11;21.50;;;5.00;;
22737;SDS011;11536;50.860;4.286;2023-02-01T01:12:36;16.92;;;5.13;;
22737;SDS011;11536;50.860;4.286;2023-02-01T01:15:02;19.95;;;5.40;;
22737;SDS011;11536;50.860;4.286;2023-02-01T01:17:28;20.10;;;5.50;;
22737;SDS011;11536;50.860;4.286;2023-02-01T01:19:56;17.27;;;4.75;;
22737;SDS011;11536;50.860;4.286;2023-02-01T01:22:21;20.42;;;4.95;;
22737;SDS011;11536;50.860;4.286;2023-02-01T01:24:47;20.63;;;4.80;;
22737;SDS011;11536;50.860;4.286;2023-02-01T01:27:12;15.68;;;4.55;;
22737;SDS011;11536;50.860;4.286;2023-02-01T01:29:38;17.48;;;4.10;;
22737;SDS011;11536;50.860;4.286;2023-02-01T01:32:04;24.25;;;4.15;;
22737;SDS011;11536;50.860;4.286;2023-02-01T01:34:30;15.40;;;3.85;;
22737;SDS011;11536;50.860;4.286;2023-02-01T01:36:55;17.58;;;3.70;;
22737;SDS011;11536;50.860;4.286;2023-02-01T01:39:21;21.40;;;3.90;;
22737;SDS011;11536;50.860;4.286;2023-02-01T01:41:46;19.35;;;3.60;;
22737;SDS011;11536;50.860;4.286;2023-02-01T01:47:15;20.73;;;3.60;;
22737;SDS011;11536;50.860;4.286;2023-02-01T01:49:41;15.25;;;3.92;;
22737;SDS011;11536;50.860;4.286;2023-02-01T01:52:07;18.83;;;4.05;;
22737;SDS011;11536;50.860;4.286;2023-02-01T01:54:39;17.13;;;3.65;;
22737;SDS011;11536;50.860;4.286;2023-02-01T01:57:08;17.10;;;4.15;;
22737;SDS011;11536;50.860;4.286;2023-02-01T01:59:48;14.90;;;4.00;;
22737;SDS011;11536;50.860;4.286;2023-02-01T02:02:20;20.75;;;3.97;;
22737;SDS011;11536;50.860;4.286;2023-02-01T02:04:46;22.33;;;3.85;;
22737;SDS011;11536;50.860;4.286;2023-02-01T02:07:23;15.95;;;2.90;;
22737;SDS011;11536;50.860;4.286;2023-02-01T02:09:52;12.40;;;2.80;;
22737;SDS011;11536;50.860;4.286;2023-02-01T02:12:17;15.68;;;3.97;;
22737;SDS011;11536;50.860;4.286;2023-02-01T02:14:43;18.25;;;3.65;;
22737;SDS011;11536;50.860;4.286;2023-02-01T02:17:19;16.30;;;3.42;;
22737;SDS011;11536;50.860;4.286;2023-02-01T02:20:20;14.85;;;3.00;;
22737;SDS011;11536;50.860;4.286;2023-02-01T02:23:09;20.15;;;4.38;;
22737;SDS011;11536;50.860;4.286;2023-02-01T02:28:57;22.13;;;3.53;;
22737;SDS011;11536;50.860;4.286;2023-02-01T02:34:14;23.70;;;3.58;;
22737;SDS011;11536;50.860;4.286;2023-02-01T02:46:16;17.42;;;3.88;;
22737;SDS011;11536;50.860;4.286;2023-02-01T02:49:12;17.10;;;3.42;;
22737;SDS011;11536;50.860;4.286;2023-02-01T02:51:52;16.90;;;3.05;;
22737;SDS011;11536;50.860;4.286;2023-02-01T02:54:43;19.77;;;3.40;;
22737;SDS011;11536;50.860;4.286;2023-02-01T02:57:18;13.95;;;3.40;;
22737;SDS011;11536;50.860;4.286;2023-02-01T03:00:04;16.45;;;3.58;;
22737;SDS011;11536;50.860;4.286;2023-02-01T03:02:52;18.40;;;3.42;;
22737;SDS011;11536;50.860;4.286;2023-02-01T03:05:36;15.65;;;3.47;;
22737;SDS011;11536;50.860;4.286;2023-02-01T03:10:43;16.20;;;3.03;;
22737;SDS011;11536;50.860;4.286;2023-02-01T03:13:25;17.52;;;2.95;;
22737;SDS011;11536;50.860;4.286;2023-02-01T03:18:59;16.60;;;3.42;;
22737;SDS011;11536;50.860;4.286;2023-02-01T03:21:55;20.77;;;3.35;;
22737;SDS011;11536;50.860;4.286;2023-02-01T03:27:22;14.13;;;3.23;;
22737;SDS011;11536;50.860;4.286;2023-02-01T03:32:51;17.35;;;3.47;;
22737;SDS011;11536;50.860;4.286;2023-02-01T03:38:17;14.70;;;2.80;;
22737;SDS011;11536;50.860;4.286;2023-02-01T03:41:08;16.05;;;2.90;;
22737;SDS011;11536;50.860;4.286;2023-02-01T03:47:02;12.82;;;2.65;;
22737;SDS011;11536;50.860;4.286;2023-02-01T03:49:46;16.65;;;2.88;;
22737;SDS011;11536;50.860;4.286;2023-02-01T03:52:22;25.17;;;3.28;;
22737;SDS011;11536;50.860;4.286;2023-02-01T03:55:08;19.35;;;3.40;;
22737;SDS011;11536;50.860;4.286;2023-02-01T03:57:37;16.95;;;2.97;;
22737;SDS011;11536;50.860;4.286;2023-02-01T04:00:18;20.52;;;3.33;;
22737;SDS011;11536;50.860;4.286;2023-02-01T04:02:46;21.25;;;3.28;;
22737;SDS011;11536;50.860;4.286;2023-02-01T04:05:12;19.70;;;2.95;;
22737;SDS011;11536;50.860;4.286;2023-02-01T04:07:38;16.95;;;2.97;;
22737;SDS011;11536;50.860;4.286;2023-02-01T04:10:04;13.57;;;2.60;;
22737;SDS011;11536;50.860;4.286;2023-02-01T04:12:30;20.05;;;3.75;;
22737;SDS011;11536;50.860;4.286;2023-02-01T04:14:55;14.80;;;3.65;;
22737;SDS011;11536;50.860;4.286;2023-02-01T04:17:21;17.90;;;3.17;;
22737;SDS011;11536;50.860;4.286;2023-02-01T04:19:46;16.67;;;3.53;;
22737;SDS011;11536;50.860;4.286;2023-02-01T04:22:12;14.07;;;3.00;;
22737;SDS011;11536;50.860;4.286;2023-02-01T04:24:38;16.23;;;2.83;;
22737;SDS011;11536;50.860;4.286;2023-02-01T04:27:03;19.50;;;3.03;;
22737;SDS011;11536;50.860;4.286;2023-02-01T04:29:29;26.33;;;3.55;;
22737;SDS011;11536;50.860;4.286;2023-02-01T04:31:55;25.10;;;3.33;;
22737;SDS011;11536;50.860;4.286;2023-02-01T04:34:20;27.02;;;3.35;;
22737;SDS011;11536;50.860;4.286;2023-02-01T04:36:47;19.48;;;3.85;;
22737;SDS011;11536;50.860;4.286;2023-02-01T04:39:13;17.17;;;3.08;;
22737;SDS011;11536;50.860;4.286;2023-02-01T04:41:38;14.25;;;3.28;;
22737;SDS011;11536;50.860;4.286;2023-02-01T04:44:04;18.30;;;3.58;;
22737;SDS011;11536;50.860;4.286;2023-02-01T04:46:30;18.60;;;3.05;;
22737;SDS011;11536;50.860;4.286;2023-02-01T04:48:55;16.55;;;2.92;;
22737;SDS011;11536;50.860;4.286;2023-02-01T04:51:21;17.73;;;2.80;;
22737;SDS011;11536;50.860;4.286;2023-02-01T04:53:47;21.23;;;3.20;;
22737;SDS011;11536;50.860;4.286;2023-02-01T04:56:12;17.23;;;2.85;;
22737;SDS011;11536;50.860;4.286;2023-02-01T04:58:38;22.50;;;3.50;;
22737;SDS011;11536;50.860;4.286;2023-02-01T05:01:04;19.35;;;3.20;;
22737;SDS011;11536;50.860;4.286;2023-02-01T05:03:32;20.02;;;3.65;;
22737;SDS011;11536;50.860;4.286;2023-02-01T05:05:58;19.45;;;3.55;;
22737;SDS011;11536;50.860;4.286;2023-02-01T05:08:24;17.30;;;2.67;;
22737;SDS011;11536;50.860;4.286;2023-02-01T05:10:50;20.95;;;3.50;;
22737;SDS011;11536;50.860;4.286;2023-02-01T05:13:16;22.10;;;3.17;;
22737;SDS011;11536;50.860;4.286;2023-02-01T05:16:01;11.07;;;2.33;;
22737;SDS011;11536;50.860;4.286;2023-02-01T05:18:26;19.02;;;2.83;;
22737;SDS011;11536;50.860;4.286;2023-02-01T05:20:52;19.25;;;2.75;;
22737;SDS011;11536;50.860;4.286;2023-02-01T05:23:18;17.48;;;2.95;;
22737;SDS011;11536;50.860;4.286;2023-02-01T05:25:43;15.80;;;2.63;;
22737;SDS011;11536;50.860;4.286;2023-02-01T05:28:09;20.23;;;3.28;;
22737;SDS011;11536;50.860;4.286;2023-02-01T05:30:34;15.68;;;3.35;;
22737;SDS011;11536;50.860;4.286;2023-02-01T05:33:00;16.60;;;3.42;;
22737;SDS011;11536;50.860;4.286;2023-02-01T05:35:26;24.10;;;4.05;;
22737;SDS011;11536;50.860;4.286;2023-02-01T05:37:52;18.90;;;3.05;;
22737;SDS011;11536;50.860;4.286;2023-02-01T05:40:18;16.23;;;2.75;;
22737;SDS011;11536;50.860;4.286;2023-02-01T05:42:43;18.08;;;2.90;;
22737;SDS011;11536;50.860;4.286;2023-02-01T05:45:09;20.38;;;2.78;;
22737;SDS011;11536;50.860;4.286;2023-02-01T05:47:35;21.38;;;3.42;;
22737;SDS011;11536;50.860;4.286;2023-02-01T05:50:01;21.05;;;2.63;;
22737;SDS011;11536;50.860;4.286;2023-02-01T05:52:27;18.33;;;3.25;;
22737;SDS011;11536;50.860;4.286;2023-02-01T05:54:53;15.35;;;3.05;;
22737;SDS011;11536;50.860;4.286;2023-02-01T05:57:18;24.38;;;3.13;;
22737;SDS011;11536;50.860;4.286;2023-02-01T05:59:44;19.77;;;2.88;;
22737;SDS011;11536;50.860;4.286;2023-02-01T06:02:11;17.05;;;2.65;;
22737;SDS011;11536;50.860;4.286;2023-02-01T06:04:37;18.20;;;3.33;;
22737;SDS011;11536;50.860;4.286;2023-02-01T06:07:03;17.02;;;2.78;;
22737;SDS011;11536;50.860;4.286;2023-02-01T06:09:30;22.15;;;2.97;;
22737;SDS011;11536;50.860;4.286;2023-02-01T06:11:56;20.60;;;3.50;;
22737;SDS011;11536;50.860;4.286;2023-02-01T06:14:22;19.60;;;3.08;;
22737;SDS011;11536;50.860;4.286;2023-02-01T06:16:49;16.75;;;2.78;;
22737;SDS011;11536;50.860;4.286;2023-02-01T06:19:14;20.60;;;3.20;;
22737;SDS011;11536;50.860;4.286;2023-02-01T06:21:40;18.63;;;3.67;;
22737;SDS011;11536;50.860;4.286;2023-02-01T06:24:06;15.45;;;3.00;;
22737;SDS011;11536;50.860;4.286;2023-02-01T06:26:32;18.88;;;3.72;;
22737;SDS011;11536;50.860;4.286;2023-02-01T06:28:58;17.27;;;3.15;;
22737;SDS011;11536;50.860;4.286;2023-02-01T06:31:23;16.13;;;3.03;;
22737;SDS011;11536;50.860;4.286;2023-02-01T06:33:50;16.77;;;2.95;;
22737;SDS011;11536;50.860;4.286;2023-02-01T06:36:16;17.25;;;3.20;;
22737;SDS011;11536;50.860;4.286;2023-02-01T06:38:43;16.00;;;3.00;;
22737;SDS011;11536;50.860;4.286;2023-02-01T06:41:09;18.08;;;3.13;;
22737;SDS011;11536;50.860;4.286;2023-02-01T06:43:36;23.23;;;3.33;;
22737;SDS011;11536;50.860;4.286;2023-02-01T06:46:02;18.98;;;2.88;;
22737;SDS011;11536;50.860;4.286;2023-02-01T06:48:30;19.08;;;2.92;;
22737;SDS011;11536;50.860;4.286;2023-02-01T06:50:57;20.35;;;3.13;;
22737;SDS011;11536;50.860;4.286;2023-02-01T06:53:22;17.35;;;2.88;;
22737;SDS011;11536;50.860;4.286;2023-02-01T06:55:55;15.85;;;3.20;;
22737;SDS011;11536;50.860;4.286;2023-02-01T06:58:31;18.38;;;3.90;;
22737;SDS011;11536;50.860;4.286;2023-02-01T07:01:03;21.15;;;4.75;;
22737;SDS011;11536;50.860;4.286;2023-02-01T07:03:33;21.90;;;4.38;;
22737;SDS011;11536;50.860;4.286;2023-02-01T07:05:58;16.92;;;4.22;;
22737;SDS011;11536;50.860;4.286;2023-02-01T07:08:24;16.02;;;4.03;;
22737;SDS011;11536;50.860;4.286;2023-02-01T07:10:51;18.85;;;3.60;;
22737;SDS011;11536;50.860;4.286;2023-02-01T07:13:17;17.10;;;3.28;;
22737;SDS011;11536;50.860;4.286;2023-02-01T07:15:43;22.13;;;4.18;;
22737;SDS011;11536;50.860;4.286;2023-02-01T07:18:08;19.83;;;3.40;;
22737;SDS011;11536;50.860;4.286;2023-02-01T07:20:34;19.02;;;3.33;;
22737;SDS011;11536;50.860;4.286;2023-02-01T07:22:59;20.75;;;4.05;;
22737;SDS011;11536;50.860;4.286;2023-02-01T07:25:25;20.13;;;4.00;;
22737;SDS011;11536;50.860;4.286;2023-02-01T07:27:51;20.70;;;4.90;;
22737;SDS011;11536;50.860;4.286;2023-02-01T07:30:16;20.88;;;4.07;;
22737;SDS011;11536;50.860;4.286;2023-02-01T07:32:42;25.67;;;6.28;;
22737;SDS011;11536;50.860;4.286;2023-02-01T07:35:08;16.98;;;3.00;;
22737;SDS011;11536;50.860;4.286;2023-02-01T07:37:33;18.45;;;3.55;;
22737;SDS011;11536;50.860;4.286;2023-02-01T07:39:59;17.73;;;3.58;;
22737;SDS011;11536;50.860;4.286;2023-02-01T07:42:25;16.55;;;3.03;;
22737;SDS011;11536;50.860;4.286;2023-02-01T07:44:50;19.40;;;3.28;;
22737;SDS011;11536;50.860;4.286;2023-02-01T07:47:16;16.52;;;3.72;;
22737;SDS011;11536;50.860;4.286;2023-02-01T07:49:41;20.30;;;4.72;;
22737;SDS011;11536;50.860;4.286;2023-02-01T07:52:07;24.05;;;4.18;;
22737;SDS011;11536;50.860;4.286;2023-02-01T07:54:33;16.33;;;3.38;;
22737;SDS011;11536;50.860;4.286;2023-02-01T07:56:58;22.30;;;3.97;;
22737;SDS011;11536;50.860;4.286;2023-02-01T07:59:24;21.02;;;4.45;;
22737;SDS011;11536;50.860;4.286;2023-02-01T08:01:49;22.70;;;4.60;;
22737;SDS011;11536;50.860;4.286;2023-02-01T08:04:15;19.13;;;4.20;;
22737;SDS011;11536;50.860;4.286;2023-02-01T08:06:41;27.23;;;7.60;;
22737;SDS011;11536;50.860;4.286;2023-02-01T08:09:06;27.70;;;8.52;;
22737;SDS011;11536;50.860;4.286;2023-02-01T08:11:34;29.70;;;8.75;;
22737;SDS011;11536;50.860;4.286;2023-02-01T08:14:02;17.90;;;6.50;;
22737;SDS011;11536;50.860;4.286;2023-02-01T08:16:28;24.98;;;7.55;;
22737;SDS011;11536;50.860;4.286;2023-02-01T08:18:54;23.13;;;6.05;;
22737;SDS011;11536;50.860;4.286;2023-02-01T08:21:21;19.35;;;4.70;;
22737;SDS011;11536;50.860;4.286;2023-02-01T08:23:51;19.15;;;4.00;;
22737;SDS011;11536;50.860;4.286;2023-02-01T08:26:19;22.85;;;4.00;;
22737;SDS011;11536;50.860;4.286;2023-02-01T08:28:48;19.13;;;3.75;;
22737;SDS011;11536;50.860;4.286;2023-02-01T08:31:16;13.80;;;3.55;;
22737;SDS011;11536;50.860;4.286;2023-02-01T08:33:43;20.50;;;4.80;;
22737;SDS011;11536;50.860;4.286;2023-02-01T08:36:12;18.70;;;4.78;;
22737;SDS011;11536;50.860;4.286;2023-02-01T08:38:38;21.27;;;3.95;;
22737;SDS011;11536;50.860;4.286;2023-02-01T08:41:11;20.83;;;4.30;;
22737;SDS011;11536;50.860;4.286;2023-02-01T08:43:39;16.67;;;3.50;;
22737;SDS011;11536;50.860;4.286;2023-02-01T08:46:05;21.60;;;4.05;;
22737;SDS011;11536;50.860;4.286;2023-02-01T08:48:32;17.17;;;3.10;;
22737;SDS011;11536;50.860;4.286;2023-02-01T08:50:57;18.60;;;3.45;;
22737;SDS011;11536;50.860;4.286;2023-02-01T08:53:29;15.65;;;3.13;;
22737;SDS011;11536;50.860;4.286;2023-02-01T08:55:55;20.67;;;3.30;;
22737;SDS011;11536;50.860;4.286;2023-02-01T08:58:21;16.25;;;3.28;;
22737;SDS011;11536;50.860;4.286;2023-02-01T09:00:46;14.93;;;3.33;;
22737;SDS011;11536;50.860;4.286;2023-02-01T09:03:13;18.58;;;3.17;;
22737;SDS011;11536;50.860;4.286;2023-02-01T09:05:39;14.40;;;3.25;;
22737;SDS011;11536;50.860;4.286;2023-02-01T09:08:04;22.27;;;4.28;;
22737;SDS011;11536;50.860;4.286;2023-02-01T09:10:31;22.30;;;3.42;;
22737;SDS011;11536;50.860;4.286;2023-02-01T09:12:56;17.10;;;3.58;;
22737;SDS011;11536;50.860;4.286;2023-02-01T09:15:22;21.70;;;3.90;;
22737;SDS011;11536;50.860;4.286;2023-02-01T09:17:47;16.23;;;4.18;;
22737;SDS011;11536;50.860;4.286;2023-02-01T09:20:14;18.88;;;4.00;;
22737;SDS011;11536;50.860;4.286;2023-02-01T09:22:40;17.73;;;3.88;;
22737;SDS011;11536;50.860;4.286;2023-02-01T09:25:06;21.10;;;4.20;;
22737;SDS011;11536;50.860;4.286;2023-02-01T09:27:32;19.08;;;5.18;;
22737;SDS011;11536;50.860;4.286;2023-02-01T09:29:58;21.15;;;3.85;;
22737;SDS011;11536;50.860;4.286;2023-02-01T09:32:24;17.27;;;3.95;;
22737;SDS011;11536;50.860;4.286;2023-02-01T09:34:50;21.60;;;3.78;;
22737;SDS011;11536;50.860;4.286;2023-02-01T09:37:17;13.48;;;3.65;;
22737;SDS011;11536;50.860;4.286;2023-02-01T09:39:43;21.25;;;3.28;;
22737;SDS011;11536;50.860;4.286;2023-02-01T09:47:43;21.67;;;4.00;;
22737;SDS011;11536;50.860;4.286;2023-02-01T09:50:17;16.05;;;3.08;;
22737;SDS011;11536;50.860;4.286;2023-02-01T09:52:55;22.77;;;4.22;;
22737;SDS011;11536;50.860;4.286;2023-02-01T09:55:42;19.20;;;4.22;;
22737;SDS011;11536;50.860;4.286;2023-02-01T09:58:13;20.95;;;4.30;;
22737;SDS011;11536;50.860;4.286;2023-02-01T10:00:39;16.75;;;3.42;;
22737;SDS011;11536;50.860;4.286;2023-02-01T10:03:10;21.38;;;4.13;;
22737;SDS011;11536;50.860;4.286;2023-02-01T10:05:54;21.23;;;4.45;;
22737;SDS011;11536;50.860;4.286;2023-02-01T10:17:03;20.67;;;4.43;;
22737;SDS011;11536;50.860;4.286;2023-02-01T10:24:58;17.00;;;3.03;;
22737;SDS011;11536;50.860;4.286;2023-02-01T10:27:49;15.93;;;2.83;;
22737;SDS011;11536;50.860;4.286;2023-02-01T10:30:18;17.27;;;2.97;;
22737;SDS011;11536;50.860;4.286;2023-02-01T10:32:47;22.10;;;3.17;;
22737;SDS011;11536;50.860;4.286;2023-02-01T10:35:25;13.50;;;2.90;;
22737;SDS011;11536;50.860;4.286;2023-02-01T10:37:54;18.02;;;3.38;;
22737;SDS011;11536;50.860;4.286;2023-02-01T10:40:25;16.75;;;2.72;;
22737;SDS011;11536;50.860;4.286;2023-02-01T10:42:52;15.35;;;2.80;;
22737;SDS011;11536;50.860;4.286;2023-02-01T10:45:20;16.75;;;2.53;;
22737;SDS011;11536;50.860;4.286;2023-02-01T10:47:49;15.63;;;2.75;;
22737;SDS011;11536;50.860;4.286;2023-02-01T10:53:42;16.88;;;2.83;;
22737;SDS011;11536;50.860;4.286;2023-02-01T10:55:50;18.83;;;3.90;;
22737;SDS011;11536;50.860;4.286;2023-02-01T10:58:18;18.23;;;2.67;;
22737;SDS011;11536;50.860;4.286;2023-02-01T11:00:57;17.67;;;3.13;;
22737;SDS011;11536;50.860;4.286;2023-02-01T11:05:59;15.20;;;2.63;;
22737;SDS011;11536;50.860;4.286;2023-02-01T11:08:25;16.85;;;2.88;;
22737;SDS011;11536;50.860;4.286;2023-02-01T11:10:57;18.13;;;2.55;;
22737;SDS011;11536;50.860;4.286;2023-02-01T11:15:56;13.45;;;2.60;;
22737;SDS011;11536;50.860;4.286;2023-02-01T11:18:27;16.95;;;2.60;;
22737;SDS011;11536;50.860;4.286;2023-02-01T11:20:54;13.75;;;2.70;;
22737;SDS011;11536;50.860;4.286;2023-02-01T11:23:22;21.13;;;2.80;;
22737;SDS011;11536;50.860;4.286;2023-02-01T11:25:53;13.57;;;2.55;;
22737;SDS011;11536;50.860;4.286;2023-02-01T11:28:21;13.57;;;2.70;;
22737;SDS011;11536;50.860;4.286;2023-02-01T11:30:51;18.10;;;2.97;;
22737;SDS011;11536;50.860;4.286;2023-02-01T11:33:20;16.27;;;2.70;;
22737;SDS011;11536;50.860;4.286;2023-02-01T11:35:54;13.57;;;2.25;;
22737;SDS011;11536;50.860;4.286;2023-02-01T11:40:55;16.80;;;2.60;;
22737;SDS011;11536;50.860;4.286;2023-02-01T11:43:35;14.15;;;2.30;;
22737;SDS011;11536;50.860;4.286;2023-02-01T11:46:02;10.65;;;1.95;;
22737;SDS011;11536;50.860;4.286;2023-02-01T11:48:30;16.02;;;2.63;;
22737;SDS011;11536;50.860;4.286;2023-02-01T11:56:17;14.55;;;2.10;;
22737;SDS011;11536;50.860;4.286;2023-02-01T12:04:39;13.77;;;1.80;;
22737;SDS011;11536;50.860;4.286;2023-02-01T12:13:12;13.13;;;2.25;;
22737;SDS011;11536;50.860;4.286;2023-02-01T12:16:28;13.35;;;1.85;;
22737;SDS011;11536;50.860;4.286;2023-02-01T12:19:15;11.43;;;1.63;;
22737;SDS011;11536;50.860;4.286;2023-02-01T12:21:54;12.55;;;1.98;;
22737;SDS011;11536;50.860;4.286;2023-02-01T12:43:09;11.13;;;1.40;;
22737;SDS011;11536;50.860;4.286;2023-02-01T12:45:47;10.82;;;1.52;;
22737;SDS011;11536;50.860;4.286;2023-02-01T12:48:31;10.30;;;1.70;;
22737;SDS011;11536;50.860;4.286;2023-02-01T12:51:09;8.00;;;1.30;;
22737;SDS011;11536;50.860;4.286;2023-02-01T12:56:11;11.73;;;1.50;;
22737;SDS011;11536;50.860;4.286;2023-02-01T12:59:00;9.73;;;1.38;;
22737;SDS011;11536;50.860;4.286;2023-02-01T13:01:36;10.68;;;2.08;;
22737;SDS011;11536;50.860;4.286;2023-02-01T13:06:38;9.00;;;1.55;;
22737;SDS011;11536;50.860;4.286;2023-02-01T13:12:23;9.02;;;1.70;;
22737;SDS011;11536;50.860;4.286;2023-02-01T13:15:05;9.95;;;1.70;;
22737;SDS011;11536;50.860;4.286;2023-02-01T13:20:23;8.40;;;1.52;;
22737;SDS011;11536;50.860;4.286;2023-02-01T13:22:57;8.55;;;1.63;;
22737;SDS011;11536;50.860;4.286;2023-02-01T13:25:47;11.05;;;1.45;;
22737;SDS011;11536;50.860;4.286;2023-02-01T13:28:20;15.00;;;1.73;;
22737;SDS011;11536;50.860;4.286;2023-02-01T13:36:30;8.40;;;1.50;;
22737;SDS011;11536;50.860;4.286;2023-02-01T13:44:38;9.52;;;1.67;;
22737;SDS011;11536;50.860;4.286;2023-02-01T13:47:35;12.93;;;2.03;;
22737;SDS011;11536;50.860;4.286;2023-02-01T13:50:13;10.30;;;1.58;;
22737;SDS011;11536;50.860;4.286;2023-02-01T13:55:46;11.48;;;1.80;;
22737;SDS011;11536;50.860;4.286;2023-02-01T13:58:21;9.02;;;1.10;;
22737;SDS011;11536;50.860;4.286;2023-02-01T14:00:47;11.38;;;1.60;;
22737;SDS011;11536;50.860;4.286;2023-02-01T14:03:19;10.65;;;1.80;;
22737;SDS011;11536;50.860;4.286;2023-02-01T14:09:05;8.60;;;1.77;;
22737;SDS011;11536;50.860;4.286;2023-02-01T14:11:31;7.60;;;1.52;;
22737;SDS011;11536;50.860;4.286;2023-02-01T14:16:43;13.50;;;1.88;;
22737;SDS011;11536;50.860;4.286;2023-02-01T14:19:22;10.88;;;1.63;;
22737;SDS011;11536;50.860;4.286;2023-02-01T14:21:53;11.55;;;1.83;;
22737;SDS011;11536;50.860;4.286;2023-02-01T14:24:29;16.20;;;2.10;;
22737;SDS011;11536;50.860;4.286;2023-02-01T14:29:43;9.57;;;1.50;;
22737;SDS011;11536;50.860;4.286;2023-02-01T14:32:20;11.55;;;1.98;;
22737;SDS011;11536;50.860;4.286;2023-02-01T14:34:51;11.18;;;2.10;;
22737;SDS011;11536;50.860;4.286;2023-02-01T14:50:24;11.93;;;2.38;;
22737;SDS011;11536;50.860;4.286;2023-02-01T14:55:40;12.00;;;2.17;;
22737;SDS011;11536;50.860;4.286;2023-02-01T15:03:47;11.80;;;2.00;;
22737;SDS011;11536;50.860;4.286;2023-02-01T15:06:44;15.55;;;2.15;;
22737;SDS011;11536;50.860;4.286;2023-02-01T15:09:34;11.25;;;1.95;;
22737;SDS011;11536;50.860;4.286;2023-02-01T15:14:40;12.25;;;2.05;;
22737;SDS011;11536;50.860;4.286;2023-02-01T15:20:15;14.80;;;2.28;;
22737;SDS011;11536;50.860;4.286;2023-02-01T15:22:57;13.73;;;1.55;;
22737;SDS011;11536;50.860;4.286;2023-02-01T15:25:29;10.68;;;1.65;;
22737;SDS011;11536;50.860;4.286;2023-02-01T15:27:57;12.80;;;1.97;;
22737;SDS011;11536;50.860;4.286;2023-02-01T15:30:24;12.18;;;1.98;;
22737;SDS011;11536;50.860;4.286;2023-02-01T15:33:03;13.95;;;1.92;;
22737;SDS011;11536;50.860;4.286;2023-02-01T15:35:44;13.93;;;1.92;;
22737;SDS011;11536;50.860;4.286;2023-02-01T15:41:01;13.30;;;2.17;;
22737;SDS011;11536;50.860;4.286;2023-02-01T15:46:10;12.07;;;2.63;;
22737;SDS011;11536;50.860;4.286;2023-02-01T15:48:45;14.63;;;2.85;;
22737;SDS011;11536;50.860;4.286;2023-02-01T15:51:15;18.38;;;3.47;;
22737;SDS011;11536;50.860;4.286;2023-02-01T15:53:48;13.73;;;2.20;;
22737;SDS011;11536;50.860;4.286;2023-02-01T15:56:22;14.70;;;3.70;;
22737;SDS011;11536;50.860;4.286;2023-02-01T15:58:50;16.40;;;2.88;;
22737;SDS011;11536;50.860;4.286;2023-02-01T16:01:19;13.50;;;3.40;;
22737;SDS011;11536;50.860;4.286;2023-02-01T16:03:45;15.10;;;4.30;;
22737;SDS011;11536;50.860;4.286;2023-02-01T16:09:11;16.55;;;2.78;;
22737;SDS011;11536;50.860;4.286;2023-02-01T16:14:19;15.80;;;3.20;;
22737;SDS011;11536;50.860;4.286;2023-02-01T16:16:45;15.93;;;3.45;;
22737;SDS011;11536;50.860;4.286;2023-02-01T16:19:11;17.02;;;3.70;;
22737;SDS011;11536;50.860;4.286;2023-02-01T16:21:37;17.30;;;3.20;;
22737;SDS011;11536;50.860;4.286;2023-02-01T16:24:02;18.55;;;3.42;;
22737;SDS011;11536;50.860;4.286;2023-02-01T16:26:32;15.30;;;3.40;;
22737;SDS011;11536;50.860;4.286;2023-02-01T16:28:59;20.55;;;3.00;;
22737;SDS011;11536;50.860;4.286;2023-02-01T16:31:28;16.50;;;3.42;;
22737;SDS011;11536;50.860;4.286;2023-02-01T16:33:56;10.85;;;2.40;;
22737;SDS011;11536;50.860;4.286;2023-02-01T16:36:22;19.45;;;3.55;;
22737;SDS011;11536;50.860;4.286;2023-02-01T16:38:50;21.50;;;2.40;;
22737;SDS011;11536;50.860;4.286;2023-02-01T16:41:20;15.80;;;3.38;;
22737;SDS011;11536;50.860;4.286;2023-02-01T16:43:51;12.35;;;2.67;;
22737;SDS011;11536;50.860;4.286;2023-02-01T16:46:19;18.02;;;2.55;;
22737;SDS011;11536;50.860;4.286;2023-02-01T16:48:57;18.45;;;2.90;;
22737;SDS011;11536;50.860;4.286;2023-02-01T16:51:24;13.60;;;2.17;;
22737;SDS011;11536;50.860;4.286;2023-02-01T16:53:53;14.52;;;2.15;;
22737;SDS011;11536;50.860;4.286;2023-02-01T16:56:28;17.52;;;2.60;;
22737;SDS011;11536;50.860;4.286;2023-02-01T16:58:56;15.13;;;2.60;;
22737;SDS011;11536;50.860;4.286;2023-02-01T17:01:22;16.98;;;2.40;;
22737;SDS011;11536;50.860;4.286;2023-02-01T17:03:48;18.23;;;2.92;;
22737;SDS011;11536;50.860;4.286;2023-02-01T17:06:16;15.40;;;2.50;;
22737;SDS011;11536;50.860;4.286;2023-02-01T17:08:44;21.40;;;3.03;;
22737;SDS011;11536;50.860;4.286;2023-02-01T17:11:22;15.70;;;3.40;;
22737;SDS011;11536;50.860;4.286;2023-02-01T17:13:48;20.17;;;2.78;;
22737;SDS011;11536;50.860;4.286;2023-02-01T17:18:43;18.65;;;3.13;;
22737;SDS011;11536;50.860;4.286;2023-02-01T17:21:11;16.83;;;3.08;;
22737;SDS011;11536;50.860;4.286;2023-02-01T17:23:37;17.60;;;3.42;;
22737;SDS011;11536;50.860;4.286;2023-02-01T17:26:02;13.48;;;3.22;;
22737;SDS011;11536;50.860;4.286;2023-02-01T17:28:28;14.85;;;3.08;;
22737;SDS011;11536;50.860;4.286;2023-02-01T17:30:54;17.83;;;2.90;;
22737;SDS011;11536;50.860;4.286;2023-02-01T17:33:23;20.27;;;3.35;;
22737;SDS011;11536;50.860;4.286;2023-02-01T17:35:52;15.75;;;3.40;;
22737;SDS011;11536;50.860;4.286;2023-02-01T17:38:19;22.08;;;3.58;;
22737;SDS011;11536;50.860;4.286;2023-02-01T17:40:45;19.10;;;3.90;;
22737;SDS011;11536;50.860;4.286;2023-02-01T17:43:12;19.55;;;3.30;;
22737;SDS011;11536;50.860;4.286;2023-02-01T17:45:40;16.92;;;3.13;;
22737;SDS011;11536;50.860;4.286;2023-02-01T17:48:14;17.33;;;3.25;;
22737;SDS011;11536;50.860;4.286;2023-02-01T17:50:40;15.88;;;3.17;;